Time;durP1;ratioP1;P1;durP2;ratioP2;P2;SDS_P1;SDS_P2;PMS_P1;PMS_P2;Temp;Humidity;BMP_temperature;BMP_pressure;BME280_temperature;BME280_humidity;BME280_pressure;Samples;Min_cycle;Max_cycle;Signal;HPM_P1;HPM_P2
2024/01/16 00:00:06;;;;;;;5.60;3.03;;;-1.40;80.20;;;;;;5107716;28;20203;-62
2024/01/16 00:02:36;;;;;;;5.43;2.30;;;-1.40;80.10;;;;;;5107695;28;20237;-64
2024/01/16 00:05:05;;;;;;;5.40;2.17;;;-1.20;83.30;;;;;;5107752;28;20194;-63
2024/01/16 00:07:35;;;;;;;2.47;2.27;;;-1.30;83.00;;;;;;5107974;28;20195;-64
2024/01/16 00:10:04;;;;;;;2.77;2.10;;;-1.30;84.60;;;;;;5107469;28;20192;-62
2024/01/16 00:12:32;;;;;;;4.23;1.93;;;-1.20;90.00;;;;;;5108026;28;20217;-62
2024/01/16 00:15:00;;;;;;;2.57;2.37;;;-1.00;89.60;;;;;;5107776;28;20199;-63
2024/01/16 00:17:29;;;;;;;2.43;2.20;;;-1.00;89.30;;;;;;5108286;28;20211;-62
2024/01/16 00:20:00;;;;;;;5.37;2.23;;;-1.00;87.00;;;;;;5107840;28;20184;-63
2024/01/16 00:22:29;;;;;;;1.93;1.83;;;-1.00;84.10;;;;;;5108148;28;20733;-62
2024/01/16 00:24:57;;;;;;;3.07;2.40;;;-0.90;87.10;;;;;;5107330;28;20695;-62
2024/01/16 00:27:26;;;;;;;4.83;2.20;;;-0.90;86.40;;;;;;5107863;28;20199;-61
2024/01/16 00:29:54;;;;;;;3.93;2.17;;;-1.00;86.10;;;;;;5107927;28;20243;-64
2024/01/16 00:32:22;;;;;;;3.17;1.97;;;-1.00;85.20;;;;;;5107753;28;20188;-63
2024/01/16 00:34:51;;;;;;;4.50;2.27;;;-1.00;84.50;;;;;;5107834;28;20946;-63
2024/01/16 00:37:20;;;;;;;2.10;1.90;;;-0.90;87.50;;;;;;5108135;28;20192;-64
2024/01/16 00:39:49;;;;;;;2.53;2.03;;;-0.90;85.70;;;;;;5107714;28;20201;-63
2024/01/16 00:42:17;;;;;;;2.77;2.53;;;-1.00;86.00;;;;;;5107529;28;20242;-62
2024/01/16 00:44:45;;;;;;;4.30;2.63;;;-0.90;88.90;;;;;;5107135;28;20235;-62
2024/01/16 00:47:14;;;;;;;2.40;2.10;;;-1.00;84.90;;;;;;5107401;28;20210;-61
2024/01/16 00:49:42;;;;;;;2.90;2.53;;;-1.10;83.10;;;;;;5111111;28;20196;-62
2024/01/16 00:52:11;;;;;;;2.60;2.40;;;-1.00;85.70;;;;;;5110879;28;20196;-63
2024/01/16 00:54:41;;;;;;;3.07;1.97;;;-1.10;81.50;;;;;;5110630;28;20192;-62
2024/01/16 00:57:10;;;;;;;2.00;1.87;;;-0.90;83.80;;;;;;5111210;28;20184;-63
2024/01/16 00:59:38;;;;;;;2.77;1.87;;;-0.90;84.80;;;;;;5110578;28;20278;-61
2024/01/16 01:02:09;;;;;;;2.87;1.70;;;-1.00;78.60;;;;;;5110787;28;20220;-62
2024/01/16 01:04:38;;;;;;;2.00;1.90;;;-1.10;78.20;;;;;;5110909;28;20724;-65
2024/01/16 01:07:06;;;;;;;3.57;2.00;;;-1.00;78.20;;;;;;5110611;28;20957;-63
2024/01/16 01:09:35;;;;;;;2.30;1.70;;;-1.20;76.60;;;;;;5111137;28;20192;-62
2024/01/16 01:12:05;;;;;;;2.70;2.10;;;-1.00;81.90;;;;;;5110771;28;20249;-65
2024/01/16 01:14:33;;;;;;;1.90;1.80;;;-1.00;80.20;;;;;;5110319;28;20205;-63
2024/01/16 01:17:02;;;;;;;2.90;1.90;;;-1.00;78.50;;;;;;5111183;28;20200;-66
2024/01/16 01:19:30;;;;;;;2.33;2.00;;;-1.00;78.70;;;;;;5110825;28;20215;-64
2024/01/16 01:21:59;;;;;;;2.33;1.70;;;-1.00;80.70;;;;;;5110553;28;20892;-62
2024/01/16 01:24:27;;;;;;;1.97;1.87;;;-1.10;83.60;;;;;;5104055;28;20188;-62
2024/01/16 01:26:55;;;;;;;2.23;2.03;;;-1.00;82.50;;;;;;5094308;28;20248;-62
2024/01/16 01:29:25;;;;;;;4.03;1.77;;;-1.00;79.80;;;;;;5113225;27;20195;-64
2024/01/16 01:31:53;;;;;;;1.67;1.57;;;-1.20;77.30;;;;;;5131080;27;20283;-65
2024/01/16 01:34:21;;;;;;;1.93;1.73;;;-1.30;77.80;;;;;;5130844;27;20199;-65
2024/01/16 01:36:50;;;;;;;2.20;2.00;;;-1.30;78.20;;;;;;5130501;27;20544;-64
2024/01/16 01:39:18;;;;;;;2.07;1.93;;;-1.40;77.40;;;;;;5130322;27;20629;-65
2024/01/16 01:41:46;;;;;;;3.13;1.80;;;-1.40;79.50;;;;;;5130128;27;20218;-64
2024/01/16 01:44:16;;;;;;;2.97;1.93;;;-1.40;79.60;;;;;;5129932;27;20278;-65
2024/01/16 01:46:46;;;;;;;3.80;2.10;;;-1.40;79.50;;;;;;5130722;27;20675;-63
2024/01/16 01:49:16;;;;;;;1.77;1.67;;;-1.30;78.90;;;;;;5131593;27;20275;-64
2024/01/16 01:51:45;;;;;;;1.90;1.80;;;-1.40;76.90;;;;;;5131444;27;20211;-65
2024/01/16 01:54:15;;;;;;;2.10;2.00;;;-1.50;75.60;;;;;;5131316;27;20551;-65
2024/01/16 01:56:45;;;;;;;2.00;1.80;;;-1.50;78.10;;;;;;5131359;27;20199;-65
2024/01/16 01:59:15;;;;;;;2.40;2.20;;;-1.60;78.90;;;;;;5130622;27;20272;-66
2024/01/16 02:01:45;;;;;;;2.17;1.83;;;-1.50;79.10;;;;;;5131037;27;20248;-66
2024/01/16 02:04:15;;;;;;;2.13;2.00;;;-1.50;80.00;;;;;;5131376;27;20223;-65
2024/01/16 02:06:45;;;;;;;2.67;1.67;;;-1.60;79.00;;;;;;5131326;27;20761;-67
2024/01/16 02:09:14;;;;;;;2.70;1.80;;;-1.60;80.20;;;;;;5131243;27;20191;-66
2024/01/16 02:11:42;;;;;;;2.27;1.73;;;-1.60;81.20;;;;;;5131235;27;20218;-65
2024/01/16 02:14:11;;;;;;;3.50;1.70;;;-1.60;84.00;;;;;;5131032;27;20201;-66
2024/01/16 02:16:41;;;;;;;2.00;1.90;;;-1.70;82.00;;;;;;5131569;27;20202;-66
2024/01/16 02:19:11;;;;;;;2.60;1.70;;;-1.70;83.50;;;;;;5131121;27;20191;-66
2024/01/16 02:21:42;;;;;;;2.63;2.00;;;-1.70;82.90;;;;;;5131102;27;20191;-66
2024/01/16 02:24:14;;;;;;;1.90;1.80;;;-1.70;80.70;;;;;;5130676;27;20656;-66
2024/01/16 02:26:43;;;;;;;3.37;1.77;;;-1.70;83.10;;;;;;5131010;27;20198;-66
2024/01/16 02:29:11;;;;;;;2.40;1.67;;;-1.80;80.20;;;;;;5130778;27;20199;-65
2024/01/16 02:31:40;;;;;;;4.13;1.97;;;-1.70;83.10;;;;;;5130835;27;20272;-66
2024/01/16 02:34:08;;;;;;;1.73;1.63;;;-1.80;80.60;;;;;;5130802;27;20195;-66
2024/01/16 02:36:37;;;;;;;2.73;1.87;;;-1.90;77.30;;;;;;5130907;27;20345;-66
2024/01/16 02:39:06;;;;;;;2.43;2.00;;;-1.90;78.40;;;;;;5130811;27;20218;-67
2024/01/16 02:41:36;;;;;;;1.80;1.70;;;-2.00;77.80;;;;;;5111755;27;20206;-66
2024/01/16 02:44:05;;;;;;;3.37;1.70;;;-2.00;77.90;;;;;;5111921;27;20230;-67
2024/01/16 02:46:34;;;;;;;3.47;1.60;;;-2.00;79.70;;;;;;5130524;27;20704;-67
2024/01/16 02:49:02;;;;;;;2.17;1.53;;;-1.90;78.50;;;;;;5130857;27;20270;-66
2024/01/16 02:51:31;;;;;;;4.20;1.93;;;-1.90;78.20;;;;;;5130865;27;20199;-66
2024/01/16 02:53:59;;;;;;;1.70;1.60;;;-1.90;77.30;;;;;;5130679;27;20671;-66
2024/01/16 02:56:27;;;;;;;1.70;1.60;;;-1.90;76.20;;;;;;5130773;27;20667;-66
2024/01/16 02:58:58;;;;;;;3.17;1.97;;;-2.00;73.60;;;;;;5130547;27;20301;-66
2024/01/16 03:01:27;;;;;;;3.47;1.80;;;-2.00;74.30;;;;;;5130731;27;20255;-66
2024/01/16 03:03:55;;;;;;;2.07;1.83;;;-2.10;74.20;;;;;;5130275;27;20630;-66
2024/01/16 03:06:28;;;;;;;1.87;1.77;;;-2.00;75.80;;;;;;5130498;27;20679;-66
2024/01/16 03:08:57;;;;;;;3.03;1.63;;;-2.10;73.00;;;;;;5130243;27;20191;-65
2024/01/16 03:11:26;;;;;;;1.63;1.53;;;-2.00;75.30;;;;;;5130296;27;20198;-66
2024/01/16 03:13:54;;;;;;;2.03;1.60;;;-2.10;74.00;;;;;;5129956;27;20573;-66
2024/01/16 03:16:24;;;;;;;4.47;1.77;;;-2.00;74.10;;;;;;5130325;27;20197;-65
2024/01/16 03:18:52;;;;;;;2.00;1.90;;;-1.90;74.20;;;;;;5130293;27;20219;-66
2024/01/16 03:21:21;;;;;;;1.90;1.80;;;-1.80;75.00;;;;;;5130144;27;20243;-66
2024/01/16 03:23:49;;;;;;;1.97;1.87;;;-1.80;75.30;;;;;;5130027;27;20223;-66
2024/01/16 03:26:18;;;;;;;1.80;1.70;;;-1.80;75.60;;;;;;5130214;27;20199;-66
2024/01/16 03:28:47;;;;;;;2.40;1.80;;;-1.70;76.60;;;;;;5130102;27;20593;-65
2024/01/16 03:31:15;;;;;;;2.17;1.97;;;-1.60;76.60;;;;;;5129986;27;20194;-66
2024/01/16 03:33:45;;;;;;;3.20;2.50;;;-1.50;74.80;;;;;;5129928;27;20657;-68
2024/01/16 03:36:13;;;;;;;2.10;1.90;;;-1.50;74.80;;;;;;5129642;27;20249;-66
2024/01/16 03:38:44;;;;;;;3.03;1.87;;;-1.50;76.10;;;;;;5129693;27;20500;-66
2024/01/16 03:41:12;;;;;;;2.00;1.90;;;-1.60;75.80;;;;;;5129759;27;20188;-66
2024/01/16 03:43:41;;;;;;;1.87;1.53;;;-1.50;78.90;;;;;;5129218;27;20222;-67
2024/01/16 03:46:12;;;;;;;1.97;1.87;;;-1.50;76.30;;;;;;5129924;27;20225;-66
2024/01/16 03:48:40;;;;;;;1.87;1.77;;;-1.40;77.10;;;;;;5129610;27;20244;-66
2024/01/16 03:51:10;;;;;;;2.10;2.00;;;-1.40;77.90;;;;;;5129882;28;20789;-66
2024/01/16 03:53:38;;;;;;;2.10;1.90;;;-1.50;76.90;;;;;;5130029;28;20717;-65
2024/01/16 03:56:07;;;;;;;2.17;2.03;;;-1.60;75.30;;;;;;5130146;28;20652;-65
2024/01/16 03:58:36;;;;;;;2.93;1.70;;;-1.50;76.10;;;;;;5130317;28;20195;-66
2024/01/16 04:01:03;;;;;;;3.57;2.10;;;-1.50;72.50;;;;;;5130317;28;20267;-66
2024/01/16 04:03:32;;;;;;;4.33;2.30;;;-1.50;72.80;;;;;;5130007;28;20307;-66
2024/01/16 04:06:00;;;;;;;4.50;2.60;;;-1.60;70.00;;;;;;5130134;28;20198;-66
2024/01/16 04:08:30;;;;;;;3.77;2.50;;;-1.50;70.50;;;;;;5130087;28;20853;-66
2024/01/16 04:10:59;;;;;;;7.53;4.00;;;-1.70;69.80;;;;;;5129520;28;20198;-66
2024/01/16 04:13:27;;;;;;;4.93;3.17;;;-1.60;70.60;;;;;;5129860;28;20618;-66
2024/01/16 04:15:55;;;;;;;3.97;2.97;;;-1.60;70.40;;;;;;5129557;28;20195;-66
2024/01/16 04:18:24;;;;;;;9.77;5.60;;;-1.60;70.60;;;;;;5129470;28;20231;-66
2024/01/16 04:20:52;;;;;;;6.57;3.97;;;-1.70;68.70;;;;;;5129644;28;20256;-66
2024/01/16 04:23:20;;;;;;;4.17;2.70;;;-1.60;70.10;;;;;;5130904;27;20318;-66
2024/01/16 04:25:50;;;;;;;1.93;1.83;;;-1.70;69.70;;;;;;5133360;27;20251;-66
2024/01/16 04:28:19;;;;;;;3.77;2.30;;;-1.70;69.20;;;;;;5133488;27;20604;-67
2024/01/16 04:30:47;;;;;;;2.40;2.20;;;-1.70;69.30;;;;;;5133474;27;20270;-66
2024/01/16 04:33:15;;;;;;;1.80;1.70;;;-1.70;71.40;;;;;;5133436;27;20230;-64
2024/01/16 04:35:44;;;;;;;2.27;2.07;;;-1.70;70.30;;;;;;5133388;27;20190;-65
2024/01/16 04:38:12;;;;;;;4.83;2.93;;;-1.70;69.80;;;;;;5133358;27;20199;-64
2024/01/16 04:40:41;;;;;;;3.13;2.80;;;-1.80;68.50;;;;;;5133637;27;20870;-65
2024/01/16 04:43:11;;;;;;;2.20;2.10;;;-1.70;69.70;;;;;;5133382;27;20190;-66
2024/01/16 04:45:39;;;;;;;2.63;2.30;;;-1.80;68.70;;;;;;5133231;27;20739;-66
2024/01/16 04:48:08;;;;;;;2.10;2.00;;;-1.80;69.80;;;;;;5133675;27;20187;-65
2024/01/16 04:50:36;;;;;;;2.13;1.90;;;-1.80;69.80;;;;;;5133302;27;20198;-65
2024/01/16 04:53:05;;;;;;;2.50;2.13;;;-1.80;69.90;;;;;;5133394;27;20595;-65
2024/01/16 04:55:34;;;;;;;5.10;3.20;;;-1.70;70.60;;;;;;5133087;27;20590;-65
2024/01/16 04:58:02;;;;;;;4.90;2.53;;;-1.60;68.40;;;;;;5133270;27;20206;-66
2024/01/16 05:00:32;;;;;;;4.33;2.30;;;-1.90;65.50;;;;;;5132874;27;20187;-65
2024/01/16 05:03:00;;;;;;;2.63;2.43;;;-1.70;66.50;;;;;;5132747;27;20703;-65
2024/01/16 05:05:29;;;;;;;7.17;3.60;;;-1.70;66.70;;;;;;5132703;27;20210;-65
2024/01/16 05:07:57;;;;;;;8.63;4.10;;;-1.80;66.10;;;;;;5133111;27;20570;-65
2024/01/16 05:10:25;;;;;;;3.13;2.50;;;-1.70;68.00;;;;;;5133106;27;20662;-65
2024/01/16 05:12:54;;;;;;;2.83;2.33;;;-1.50;67.40;;;;;;5132806;27;20236;-65
2024/01/16 05:15:22;;;;;;;3.70;2.70;;;-1.60;67.40;;;;;;5132749;27;20191;-65
2024/01/16 05:17:53;;;;;;;6.10;2.87;;;-1.60;66.50;;;;;;5132655;27;20199;-65
2024/01/16 05:20:22;;;;;;;2.60;2.40;;;-1.70;65.90;;;;;;5132640;27;20197;-65
2024/01/16 05:22:50;;;;;;;2.87;2.57;;;-1.70;65.30;;;;;;5132600;27;20191;-65
2024/01/16 05:25:19;;;;;;;2.80;2.10;;;-1.70;65.80;;;;;;5132429;27;20214;-65
2024/01/16 05:27:49;;;;;;;2.30;2.07;;;-1.70;66.00;;;;;;5132569;27;20280;-65
2024/01/16 05:30:17;;;;;;;2.53;1.90;;;-1.50;66.90;;;;;;5132321;27;20263;-65
2024/01/16 05:32:46;;;;;;;2.83;2.07;;;-1.50;65.50;;;;;;5132333;27;20294;-66
2024/01/16 05:35:16;;;;;;;2.37;2.10;;;-1.50;66.30;;;;;;5132180;27;20195;-66
2024/01/16 05:37:44;;;;;;;2.37;1.60;;;-1.50;66.00;;;;;;5132298;27;20306;-67
2024/01/16 05:40:12;;;;;;;3.80;2.60;;;-1.30;67.30;;;;;;5132016;27;20183;-66
2024/01/16 05:42:41;;;;;;;2.63;2.43;;;-1.40;65.50;;;;;;5131902;27;20190;-65
2024/01/16 05:45:10;;;;;;;3.60;2.77;;;-1.40;66.20;;;;;;5131718;27;20219;-65
2024/01/16 05:47:38;;;;;;;6.07;3.00;;;-1.40;67.00;;;;;;5131719;27;20278;-66
2024/01/16 05:50:08;;;;;;;3.93;2.40;;;-1.40;67.20;;;;;;5131926;27;20270;-66
2024/01/16 05:52:40;;;;;;;2.50;2.30;;;-1.40;67.90;;;;;;5131629;27;20594;-65
2024/01/16 05:55:10;;;;;;;3.97;2.30;;;-1.50;67.60;;;;;;5131463;27;20195;-66
2024/01/16 05:57:39;;;;;;;2.67;2.37;;;-1.40;69.00;;;;;;5131855;27;20187;-65
2024/01/16 06:00:08;;;;;;;2.60;2.40;;;-1.50;67.80;;;;;;5130998;27;20234;-64
2024/01/16 06:02:36;;;;;;;4.47;2.20;;;-1.50;67.70;;;;;;5131372;27;20280;-65
2024/01/16 06:05:05;;;;;;;4.53;2.70;;;-1.50;69.40;;;;;;5131359;27;20222;-65
2024/01/16 06:07:34;;;;;;;5.77;2.43;;;-1.40;68.50;;;;;;5131361;27;20213;-65
2024/01/16 06:10:04;;;;;;;4.60;3.03;;;-1.30;69.40;;;;;;5131282;27;20191;-65
2024/01/16 06:12:33;;;;;;;3.43;3.10;;;-1.20;69.60;;;;;;5131322;27;20218;-66
2024/01/16 06:15:02;;;;;;;4.13;3.07;;;-1.30;67.60;;;;;;5131109;27;20571;-65
2024/01/16 06:17:30;;;;;;;7.30;3.47;;;-1.30;67.40;;;;;;5130934;27;20248;-65
2024/01/16 06:19:59;;;;;;;15.93;8.13;;;-1.30;67.00;;;;;;5130975;27;20256;-65
2024/01/16 06:22:27;;;;;;;20.73;9.63;;;-1.30;66.20;;;;;;5131101;27;20297;-65
2024/01/16 06:24:55;;;;;;;21.43;12.83;;;-1.30;66.80;;;;;;5130592;27;20309;-65
2024/01/16 06:27:25;;;;;;;16.43;10.53;;;-1.40;65.90;;;;;;5130775;27;20187;-65
2024/01/16 06:29:53;;;;;;;8.43;6.37;;;-1.50;65.50;;;;;;5130546;27;20187;-66
2024/01/16 06:32:22;;;;;;;4.53;3.67;;;-1.50;66.60;;;;;;5130704;27;20199;-66
2024/01/16 06:34:50;;;;;;;4.13;3.00;;;-1.50;65.50;;;;;;5130685;27;20195;-64
2024/01/16 06:37:18;;;;;;;5.37;3.30;;;-1.60;64.60;;;;;;5130685;27;20684;-64
2024/01/16 06:39:47;;;;;;;4.33;3.03;;;-1.50;66.10;;;;;;5130458;27;20595;-64
2024/01/16 06:42:15;;;;;;;5.73;3.47;;;-1.60;64.60;;;;;;5130609;27;20322;-64
2024/01/16 06:44:45;;;;;;;5.13;3.80;;;-1.60;64.70;;;;;;5130479;27;20210;-65
2024/01/16 06:47:13;;;;;;;13.90;7.40;;;-1.40;65.60;;;;;;5129857;27;20780;-65
2024/01/16 06:49:42;;;;;;;4.07;3.57;;;-1.40;64.60;;;;;;5130470;27;20271;-64
2024/01/16 06:52:10;;;;;;;7.10;4.23;;;-1.40;64.80;;;;;;5130610;27;20282;-65
2024/01/16 06:54:38;;;;;;;5.77;4.20;;;-1.40;63.40;;;;;;5130225;27;20206;-65
2024/01/16 06:57:07;;;;;;;6.73;4.10;;;-1.40;64.00;;;;;;5130549;27;20682;-64
2024/01/16 06:59:36;;;;;;;5.10;3.80;;;-1.30;64.00;;;;;;5130299;27;20191;-65
2024/01/16 07:02:05;;;;;;;5.13;3.83;;;-1.30;62.20;;;;;;5130262;27;20199;-65
2024/01/16 07:04:34;;;;;;;4.90;3.70;;;-1.30;62.10;;;;;;5130234;27;20195;-66
2024/01/16 07:07:03;;;;;;;4.33;3.57;;;-1.30;61.90;;;;;;5130106;27;20195;-66
2024/01/16 07:09:32;;;;;;;5.10;3.10;;;-1.30;60.80;;;;;;5130375;27;20206;-66
2024/01/16 07:12:00;;;;;;;3.63;3.33;;;-1.30;61.60;;;;;;5130163;27;20271;-66
2024/01/16 07:14:29;;;;;;;4.37;3.27;;;-1.30;60.40;;;;;;5130061;27;20199;-66
2024/01/16 07:16:58;;;;;;;3.73;3.40;;;-1.20;60.00;;;;;;5129750;27;20613;-66
2024/01/16 07:19:28;;;;;;;5.50;3.60;;;-1.40;58.60;;;;;;5129777;27;20191;-66
2024/01/16 07:21:56;;;;;;;5.53;3.63;;;-1.40;58.50;;;;;;5130041;27;20219;-65
2024/01/16 07:24:25;;;;;;;3.50;3.20;;;-1.40;59.00;;;;;;5129585;27;20207;-65
2024/01/16 07:26:55;;;;;;;5.20;3.53;;;-1.30;59.10;;;;;;5129748;27;20218;-64
2024/01/16 07:29:23;;;;;;;3.87;3.53;;;-1.20;59.70;;;;;;5129779;27;20236;-65
2024/01/16 07:31:52;;;;;;;3.97;3.43;;;-1.10;59.30;;;;;;5129706;27;20195;-64
2024/01/16 07:34:21;;;;;;;5.27;4.40;;;-1.20;58.80;;;;;;5129678;27;20648;-66
2024/01/16 07:36:51;;;;;;;5.80;4.07;;;-0.90;58.00;;;;;;5129639;27;20206;-63
2024/01/16 07:39:22;;;;;;;7.87;5.10;;;-0.60;58.40;;;;;;5129632;27;20195;-63
2024/01/16 07:41:49;;;;;;;7.00;4.30;;;-0.40;58.80;;;;;;5129680;27;20263;-64
2024/01/16 07:44:18;;;;;;;4.37;3.97;;;-0.60;57.50;;;;;;5129608;27;20199;-65
2024/01/16 07:46:49;;;;;;;6.03;3.77;;;-0.60;57.50;;;;;;5129427;27;20226;-66
2024/01/16 07:49:18;;;;;;;8.13;4.53;;;-0.60;58.10;;;;;;5129590;27;20665;-64
2024/01/16 07:51:46;;;;;;;6.17;3.83;;;-0.60;58.40;;;;;;5122032;28;20199;-66
2024/01/16 07:54:16;;;;;;;5.50;4.10;;;-0.60;58.40;;;;;;5111303;28;20280;-65
2024/01/16 07:56:45;;;;;;;6.07;3.70;;;-0.50;58.30;;;;;;5128436;27;20191;-65
2024/01/16 07:59:13;;;;;;;4.87;3.20;;;-0.50;58.00;;;;;;5132375;27;20198;-64
2024/01/16 08:01:42;;;;;;;5.50;3.80;;;-0.70;56.70;;;;;;5133532;27;20201;-68
2024/01/16 08:04:10;;;;;;;5.70;3.90;;;-0.70;57.50;;;;;;5133242;27;20226;-64
2024/01/16 08:06:39;;;;;;;7.30;5.30;;;-0.60;58.10;;;;;;5114887;27;20237;-69
2024/01/16 08:09:08;;;;;;;10.63;5.77;;;-0.70;58.60;;;;;;5133613;27;20203;-64
2024/01/16 08:11:39;;;;;;;11.53;6.30;;;-0.80;58.40;;;;;;5133667;27;20281;-67
2024/01/16 08:14:08;;;;;;;8.03;5.50;;;-0.80;59.70;;;;;;5133305;27;20194;-63
2024/01/16 08:16:36;;;;;;;6.53;4.67;;;-0.90;58.90;;;;;;5133331;27;20696;-61
2024/01/16 08:19:04;;;;;;;8.73;5.90;;;-0.70;58.40;;;;;;5132763;27;20231;-64
2024/01/16 08:21:33;;;;;;;9.63;5.97;;;-0.50;58.00;;;;;;5133355;27;20195;-68
2024/01/16 08:24:02;;;;;;;14.73;7.90;;;-0.60;57.90;;;;;;5133302;27;20202;-63
2024/01/16 08:26:30;;;;;;;14.97;8.13;;;-0.70;57.20;;;;;;5132617;27;20229;-63
2024/01/16 08:29:00;;;;;;;14.30;7.50;;;-0.70;57.50;;;;;;5132776;27;20190;-64
2024/01/16 08:31:29;;;;;;;11.43;6.20;;;-0.60;57.10;;;;;;5113870;27;20256;-68
2024/01/16 08:33:57;;;;;;;13.03;7.93;;;-0.40;56.90;;;;;;5114101;27;20211;-65
2024/01/16 08:36:26;;;;;;;13.83;8.07;;;-0.30;57.00;;;;;;5132276;27;20238;-63
2024/01/16 08:38:55;;;;;;;10.50;6.63;;;-0.40;56.70;;;;;;5132343;27;20223;-67
2024/01/16 08:41:23;;;;;;;10.30;6.17;;;-0.40;56.90;;;;;;5132856;27;20191;-64
2024/01/16 08:43:53;;;;;;;12.30;6.80;;;-0.50;57.30;;;;;;5132407;27;20191;-64
2024/01/16 08:46:23;;;;;;;12.33;7.27;;;-0.40;57.80;;;;;;5132004;27;20222;-64
2024/01/16 08:48:51;;;;;;;10.70;6.77;;;-0.30;57.50;;;;;;5132467;27;20556;-65
2024/01/16 08:51:19;;;;;;;12.87;6.83;;;-0.20;57.80;;;;;;5132328;27;20183;-65
2024/01/16 08:53:48;;;;;;;8.37;4.67;;;0.00;57.60;;;;;;5131926;27;20191;-64
2024/01/16 08:56:17;;;;;;;8.10;5.40;;;0.00;56.90;;;;;;5131660;27;20397;-65
2024/01/16 08:58:46;;;;;;;10.23;5.90;;;0.10;56.80;;;;;;5131783;27;20287;-65
2024/01/16 09:01:14;;;;;;;9.77;5.63;;;0.10;56.50;;;;;;5131753;27;20288;-65
2024/01/16 09:03:44;;;;;;;7.60;5.57;;;0.10;57.50;;;;;;5131729;27;20227;-64
2024/01/16 09:06:13;;;;;;;7.20;5.33;;;0.10;56.80;;;;;;5131601;27;20218;-64
2024/01/16 09:08:41;;;;;;;12.30;7.50;;;0.00;56.10;;;;;;5131491;27;20549;-64
2024/01/16 09:11:11;;;;;;;8.73;5.83;;;0.10;57.10;;;;;;5131887;27;20190;-67
2024/01/16 09:13:39;;;;;;;8.97;5.67;;;0.20;56.80;;;;;;5131836;27;20191;-64
2024/01/16 09:16:08;;;;;;;10.93;6.03;;;0.20;56.20;;;;;;5131807;27;20189;-64
2024/01/16 09:18:36;;;;;;;12.63;7.10;;;0.30;57.10;;;;;;5132150;27;20200;-65
2024/01/16 09:21:06;;;;;;;8.00;5.33;;;0.40;57.60;;;;;;5131898;27;20664;-64
2024/01/16 09:23:35;;;;;;;8.57;5.50;;;0.30;56.30;;;;;;5130785;27;20195;-64
2024/01/16 09:26:03;;;;;;;8.93;4.53;;;0.30;57.00;;;;;;5110458;28;20219;-66
2024/01/16 09:28:32;;;;;;;7.27;3.90;;;0.20;56.30;;;;;;5110768;28;20192;-64
2024/01/16 09:31:00;;;;;;;8.23;5.13;;;0.20;56.20;;;;;;5110524;28;20253;-66
2024/01/16 09:33:28;;;;;;;5.00;3.93;;;0.30;56.30;;;;;;5110730;28;20195;-64
2024/01/16 09:35:57;;;;;;;8.67;4.10;;;0.30;57.00;;;;;;5092005;28;20206;-66
2024/01/16 09:38:27;;;;;;;8.50;5.10;;;0.40;57.00;;;;;;5110873;28;20242;-66
2024/01/16 09:40:58;;;;;;;7.23;4.43;;;0.50;56.60;;;;;;5120511;27;20191;-66
2024/01/16 09:43:28;;;;;;;7.67;4.80;;;0.50;57.10;;;;;;5128209;27;20203;-66
2024/01/16 09:45:57;;;;;;;8.83;4.57;;;0.50;56.10;;;;;;5131013;27;20196;-64
2024/01/16 09:48:30;;;;;;;6.57;4.13;;;0.40;56.60;;;;;;5130708;27;20214;-67
2024/01/16 09:50:59;;;;;;;6.07;4.43;;;0.40;56.50;;;;;;5130675;27;20723;-69
2024/01/16 09:53:29;;;;;;;6.40;4.03;;;0.30;57.00;;;;;;5130925;27;20223;-65
2024/01/16 09:56:02;;;;;;;8.17;4.33;;;0.20;56.90;;;;;;5130794;27;20249;-69
2024/01/16 09:58:37;;;;;;;6.57;3.53;;;0.20;57.30;;;;;;5130863;27;20202;-64
2024/01/16 10:01:07;;;;;;;4.47;3.70;;;0.10;56.90;;;;;;5130610;27;20195;-63
2024/01/16 10:03:36;;;;;;;9.30;4.97;;;0.00;56.70;;;;;;5130601;27;20315;-68
2024/01/16 10:06:06;;;;;;;4.93;3.17;;;-0.10;56.90;;;;;;5111609;27;20677;-64
2024/01/16 10:08:37;;;;;;;5.60;3.80;;;-0.10;57.30;;;;;;5130630;27;20640;-67
2024/01/16 10:11:06;;;;;;;4.90;3.43;;;0.00;56.80;;;;;;5112669;27;20225;-64
2024/01/16 10:13:35;;;;;;;5.43;3.30;;;0.30;56.60;;;;;;5109788;28;20693;-66
2024/01/16 10:16:04;;;;;;;3.17;2.87;;;0.20;55.80;;;;;;5109846;28;20192;-65
2024/01/16 10:18:33;;;;;;;5.77;3.27;;;0.00;54.80;;;;;;5109722;28;20257;-65
2024/01/16 10:21:02;;;;;;;9.07;5.57;;;0.10;55.60;;;;;;5108893;28;20196;-65
2024/01/16 10:23:32;;;;;;;18.40;12.53;;;0.00;55.60;;;;;;5090706;28;20257;-66
2024/01/16 10:26:13;;;;;;;15.07;8.43;;;0.20;55.70;;;;;;5109532;28;20195;-65
2024/01/16 10:28:43;;;;;;;3.93;3.50;;;0.30;55.20;;;;;;5109712;28;20192;-65
2024/01/16 10:31:13;;;;;;;4.73;3.60;;;-0.10;53.40;;;;;;5109531;28;20251;-65
2024/01/16 10:33:42;;;;;;;4.17;2.90;;;-0.30;53.70;;;;;;5109639;28;20671;-64
2024/01/16 10:36:13;;;;;;;5.93;4.07;;;-0.60;53.10;;;;;;5109802;28;20295;-62
2024/01/16 10:38:43;;;;;;;3.03;2.70;;;-0.50;53.90;;;;;;5109070;28;20202;-67
2024/01/16 10:41:14;;;;;;;4.23;3.13;;;-0.50;53.70;;;;;;5107121;28;20289;-66
2024/01/16 10:43:44;;;;;;;5.97;3.37;;;-0.50;53.50;;;;;;5109408;28;20275;-64
2024/01/16 10:46:14;;;;;;;6.83;2.90;;;-0.30;54.20;;;;;;5109343;28;20246;-65
2024/01/16 10:48:44;;;;;;;6.77;4.30;;;-0.20;54.00;;;;;;5108959;28;20215;-65
2024/01/16 10:51:16;;;;;;;4.43;2.90;;;-0.20;53.80;;;;;;5109122;28;20202;-65
2024/01/16 10:53:46;;;;;;;4.17;3.10;;;-0.10;54.00;;;;;;5108513;28;20203;-66
2024/01/16 10:56:19;;;;;;;6.87;3.57;;;-0.20;54.00;;;;;;5109287;28;20662;-65
2024/01/16 10:58:58;;;;;;;4.10;2.80;;;0.30;55.00;;;;;;5108764;28;20673;-63
2024/01/16 11:01:27;;;;;;;4.67;3.37;;;0.10;54.20;;;;;;5108565;28;20195;-66
2024/01/16 11:03:59;;;;;;;4.43;3.60;;;-0.10;54.10;;;;;;5108567;28;20259;-64
2024/01/16 11:06:28;;;;;;;7.83;4.37;;;-0.10;54.50;;;;;;5108880;28;20728;-65
2024/01/16 11:08:59;;;;;;;4.30;3.23;;;-0.10;54.50;;;;;;5090340;28;20200;-66
2024/01/16 11:11:32;;;;;;;5.63;3.53;;;0.00;54.30;;;;;;5108916;28;20204;-65
2024/01/16 11:14:00;;;;;;;8.43;4.53;;;0.10;54.60;;;;;;5108823;28;20226;-65
2024/01/16 11:16:31;;;;;;;6.73;4.20;;;0.00;54.60;;;;;;5108893;28;20191;-64
2024/01/16 11:18:59;;;;;;;5.13;3.90;;;-0.10;54.90;;;;;;5108715;28;20230;-64
2024/01/16 11:21:42;;;;;;;5.23;3.97;;;0.00;54.80;;;;;;5108762;28;20936;-66
2024/01/16 11:24:24;;;;;;;9.07;5.77;;;-0.10;54.60;;;;;;5108781;28;20203;-66
2024/01/16 11:26:54;;;;;;;6.53;3.23;;;0.00;55.30;;;;;;5108826;28;20245;-65
2024/01/16 11:29:50;;;;;;;6.03;3.47;;;-0.10;54.10;;;;;;5108724;28;20295;-65
2024/01/16 11:32:35;;;;;;;5.07;2.80;;;-0.50;53.50;;;;;;5108138;28;20200;-63
2024/01/16 11:35:06;;;;;;;3.20;2.57;;;-0.70;53.00;;;;;;5108714;28;20210;-64
2024/01/16 11:37:37;;;;;;;2.73;2.50;;;-0.90;53.20;;;;;;5108615;28;20195;-63
2024/01/16 11:40:26;;;;;;;4.83;3.40;;;-0.90;53.50;;;;;;5108078;28;20491;-64
2024/01/16 11:42:56;;;;;;;6.43;3.23;;;-0.90;53.60;;;;;;5108390;28;20188;-64
2024/01/16 11:45:51;;;;;;;6.17;3.73;;;-1.00;53.40;;;;;;5108395;28;20199;-65
2024/01/16 11:48:20;;;;;;;2.60;2.40;;;-1.00;53.60;;;;;;5108016;28;20786;-64
2024/01/16 11:50:49;;;;;;;5.00;3.50;;;-1.20;53.50;;;;;;5108315;28;20269;-63
2024/01/16 11:53:33;;;;;;;8.13;4.13;;;-1.10;53.90;;;;;;5108132;28;20196;-66
2024/01/16 11:56:40;;;;;;;8.57;4.80;;;-1.10;54.10;;;;;;5108274;28;20612;-64
2024/01/16 11:59:42;;;;;;;6.93;3.50;;;-1.20;54.30;;;;;;5044765;28;20217;-65
2024/01/16 12:02:19;;;;;;;10.37;4.67;;;-1.20;54.80;;;;;;5032694;28;20229;-66
2024/01/16 12:04:55;;;;;;;5.20;2.90;;;-1.20;55.20;;;;;;5044741;28;20197;-66
2024/01/16 12:07:23;;;;;;;6.17;3.70;;;-1.00;54.90;;;;;;5044863;28;20688;-65
2024/01/16 12:09:52;;;;;;;7.17;4.47;;;-0.90;54.60;;;;;;5044399;28;20652;-65
2024/01/16 12:12:21;;;;;;;6.50;5.50;;;-0.90;54.10;;;;;;5044811;28;20190;-66
2024/01/16 12:14:56;;;;;;;6.17;4.10;;;-0.80;54.20;;;;;;5044567;28;20206;-66
2024/01/16 12:17:25;;;;;;;4.13;3.07;;;-0.80;54.30;;;;;;5044393;28;20197;-65
2024/01/16 12:19:54;;;;;;;4.03;3.23;;;-1.00;53.60;;;;;;5044643;28;20679;-66
2024/01/16 12:22:23;;;;;;;4.30;3.30;;;-1.10;53.40;;;;;;5044635;28;20260;-66
2024/01/16 12:24:56;;;;;;;6.07;3.93;;;-1.10;53.50;;;;;;5044727;28;20226;-66
2024/01/16 12:27:25;;;;;;;4.00;2.63;;;-1.10;53.80;;;;;;5044804;28;20233;-65
2024/01/16 12:30:08;;;;;;;2.53;2.37;;;-1.20;53.60;;;;;;5044950;28;20564;-66
2024/01/16 12:32:36;;;;;;;5.03;3.07;;;-1.10;53.50;;;;;;5044467;28;20205;-65
2024/01/16 12:35:05;;;;;;;4.43;3.50;;;-1.40;53.70;;;;;;5061089;28;20296;-65
2024/01/16 12:37:33;;;;;;;3.73;3.03;;;-1.20;54.00;;;;;;5107889;28;20203;-65
2024/01/16 12:40:02;;;;;;;4.50;2.80;;;-1.20;53.80;;;;;;5107640;28;20207;-65
2024/01/16 12:42:30;;;;;;;3.90;2.90;;;-1.20;53.60;;;;;;5107887;28;20588;-64
2024/01/16 12:44:59;;;;;;;3.80;2.80;;;-1.20;53.90;;;;;;5109974;28;20574;-64
2024/01/16 12:47:30;;;;;;;4.50;3.30;;;-1.20;54.00;;;;;;5111383;28;20691;-65
2024/01/16 12:49:58;;;;;;;3.80;3.00;;;-1.00;54.20;;;;;;5111472;28;20192;-64
2024/01/16 12:52:27;;;;;;;2.90;2.60;;;-1.10;53.90;;;;;;5111455;28;20195;-64
2024/01/16 12:55:00;;;;;;;5.83;3.00;;;-1.10;54.10;;;;;;5111260;28;20195;-66
2024/01/16 12:57:30;;;;;;;3.50;2.70;;;-0.80;55.00;;;;;;5111488;28;20275;-65
2024/01/16 13:00:00;;;;;;;6.10;3.93;;;-0.80;54.30;;;;;;5111419;28;20269;-65